createdAt,value
2023-01-27T00:00:54.712Z,636.0000
2023-01-27T00:01:56.886Z,637.0000
2023-01-27T00:02:59.142Z,637.0000
2023-01-27T00:04:01.523Z,635.0000
2023-01-27T00:05:03.733Z,635.0000
2023-01-27T00:06:06.043Z,634.0000
2023-01-27T00:07:06.155Z,630.0000
2023-01-27T00:08:08.495Z,631.0000
2023-01-27T00:09:10.833Z,631.0000
2023-01-27T00:10:13.586Z,630.0000
2023-01-27T00:11:15.585Z,629.0000
2023-01-27T00:12:15.735Z,627.0000
2023-01-27T00:13:18.064Z,631.0000
2023-01-27T00:14:19.296Z,631.0000
2023-01-27T00:15:20.627Z,634.0000
2023-01-27T00:16:22.993Z,618.0000
2023-01-27T00:17:25.333Z,630.0000
2023-01-27T00:18:27.704Z,628.0000
2023-01-27T00:19:29.968Z,628.0000
2023-01-27T00:20:30.180Z,631.0000
2023-01-27T00:21:32.511Z,632.0000
2023-01-27T00:22:34.789Z,629.0000
2023-01-27T00:23:37.121Z,627.0000
2023-01-27T00:24:39.486Z,627.0000
2023-01-27T00:25:39.710Z,626.0000
2023-01-27T00:26:42.182Z,627.0000
2023-01-27T00:27:44.421Z,628.0000
2023-01-27T00:28:46.789Z,627.0000
2023-01-27T00:29:49.126Z,632.0000
2023-01-27T00:30:49.404Z,625.0000
2023-01-27T00:31:51.789Z,625.0000
2023-01-27T00:32:54.063Z,627.0000
2023-01-27T00:33:56.453Z,625.0000
2023-01-27T00:34:58.824Z,625.0000
2023-01-27T00:35:59.075Z,629.0000
2023-01-27T00:37:01.507Z,627.0000
2023-01-27T00:38:03.779Z,626.0000
2023-01-27T00:39:06.127Z,623.0000
2023-01-27T00:40:06.340Z,623.0000
2023-01-27T00:41:08.664Z,624.0000
2023-01-27T00:42:11.015Z,625.0000
2023-01-27T00:43:13.318Z,624.0000
2023-01-27T00:44:13.754Z,623.0000
2023-01-27T00:45:15.795Z,622.0000
2023-01-27T00:46:18.126Z,622.0000
2023-01-27T00:47:20.369Z,624.0000
2023-01-27T00:48:22.659Z,629.0000
2023-01-27T00:49:24.939Z,628.0000
2023-01-27T00:50:27.215Z,628.0000
2023-01-27T00:51:27.419Z,622.0000
2023-01-27T00:52:29.782Z,622.0000
2023-01-27T00:53:31.989Z,625.0000
2023-01-27T00:54:34.323Z,625.0000
2023-01-27T00:55:36.622Z,628.0000
2023-01-27T00:56:38.929Z,626.0000
2023-01-27T00:57:39.082Z,623.0000
2023-01-27T00:58:41.297Z,622.0000
2023-01-27T00:59:43.566Z,619.0000
2023-01-27T01:00:45.851Z,617.0000
2023-01-27T01:01:48.232Z,615.0000
2023-01-27T01:02:50.541Z,616.0000
2023-01-27T01:03:52.826Z,614.0000
2023-01-27T01:04:52.995Z,616.0000
2023-01-27T01:05:55.314Z,622.0000
2023-01-27T01:06:57.667Z,619.0000
2023-01-27T01:08:00.092Z,618.0000
2023-01-27T01:09:02.290Z,617.0000
2023-01-27T01:10:02.464Z,613.0000
2023-01-27T01:11:04.834Z,614.0000
2023-01-27T01:12:07.130Z,618.0000
2023-01-27T01:13:09.503Z,613.0000
2023-01-27T01:14:11.787Z,613.0000
2023-01-27T01:15:11.968Z,614.0000
2023-01-27T01:16:14.286Z,614.0000
2023-01-27T01:17:16.544Z,611.0000
2023-01-27T01:18:18.870Z,613.0000
2023-01-27T01:19:21.214Z,614.0000
2023-01-27T01:20:21.407Z,619.0000
2023-01-27T01:21:23.783Z,613.0000
2023-01-27T01:22:26.155Z,608.0000
2023-01-27T01:23:28.549Z,604.0000
2023-01-27T01:24:30.829Z,607.0000
2023-01-27T01:25:31.042Z,607.0000
2023-01-27T01:26:33.399Z,612.0000
2023-01-27T01:27:35.761Z,611.0000
2023-01-27T01:28:38.156Z,612.0000
2023-01-27T01:29:40.459Z,608.0000
2023-01-27T01:30:40.645Z,611.0000
2023-01-27T01:31:43.007Z,612.0000
2023-01-27T01:32:45.323Z,611.0000
2023-01-27T01:33:47.715Z,608.0000
2023-01-27T01:34:50.021Z,609.0000
2023-01-27T01:35:50.255Z,609.0000
2023-01-27T01:36:52.583Z,605.0000
2023-01-27T01:37:54.963Z,603.0000
2023-01-27T01:38:57.329Z,605.0000
2023-01-27T01:39:59.708Z,603.0000
2023-01-27T01:40:59.942Z,602.0000
2023-01-27T01:42:02.266Z,600.0000
2023-01-27T01:43:04.583Z,602.0000
2023-01-27T01:44:04.814Z,605.0000
2023-01-27T01:45:07.109Z,602.0000
2023-01-27T01:46:07.284Z,602.0000
2023-01-27T01:47:09.578Z,596.0000
2023-01-27T01:48:11.855Z,597.0000
2023-01-27T01:49:14.149Z,597.0000
2023-01-27T01:50:16.349Z,599.0000
2023-01-27T01:51:18.574Z,602.0000
2023-01-27T01:52:20.840Z,597.0000
2023-01-27T01:53:23.147Z,597.0000
2023-01-27T01:54:25.400Z,597.0000
2023-01-27T01:55:27.648Z,610.0000
2023-01-27T01:56:29.997Z,607.0000
2023-01-27T01:57:32.358Z,605.0000
2023-01-27T01:58:34.708Z,603.0000
2023-01-27T01:59:34.941Z,601.0000
2023-01-27T02:00:37.263Z,602.0000
2023-01-27T02:01:39.625Z,600.0000
2023-01-27T02:02:42.065Z,598.0000
2023-01-27T02:03:44.330Z,599.0000
2023-01-27T02:04:44.601Z,594.0000
2023-01-27T02:05:46.875Z,592.0000
2023-01-27T02:06:49.233Z,596.0000
2023-01-27T02:07:51.562Z,596.0000
2023-01-27T02:08:53.912Z,596.0000
2023-01-27T02:09:54.115Z,596.0000
2023-01-27T02:10:56.415Z,595.0000
2023-01-27T02:11:58.769Z,601.0000
2023-01-27T02:13:01.075Z,595.0000
2023-01-27T02:14:03.348Z,595.0000
2023-01-27T02:15:05.703Z,600.0000
2023-01-27T02:16:05.826Z,597.0000
2023-01-27T02:17:08.172Z,595.0000
2023-01-27T02:18:10.509Z,599.0000
2023-01-27T02:19:12.861Z,595.0000
2023-01-27T02:20:15.237Z,594.0000
2023-01-27T02:21:15.406Z,594.0000
2023-01-27T02:22:17.736Z,593.0000
2023-01-27T02:23:20.085Z,594.0000
2023-01-27T02:24:22.578Z,592.0000
2023-01-27T02:25:24.926Z,594.0000
2023-01-27T02:26:25.043Z,593.0000
2023-01-27T02:27:27.427Z,595.0000
2023-01-27T02:28:29.824Z,591.0000
2023-01-27T02:29:32.192Z,591.0000
2023-01-27T02:30:32.685Z,589.0000
2023-01-27T02:31:34.829Z,586.0000
2023-01-27T02:32:39.283Z,588.0000
2023-01-27T02:33:39.371Z,589.0000
2023-01-27T02:34:41.714Z,591.0000
2023-01-27T02:35:41.959Z,593.0000
2023-01-27T02:36:44.273Z,588.0000
2023-01-27T02:37:46.650Z,582.0000
2023-01-27T02:38:48.995Z,581.0000
2023-01-27T02:39:49.236Z,586.0000
2023-01-27T02:40:51.581Z,586.0000
2023-01-27T02:41:53.942Z,587.0000
2023-01-27T02:42:56.291Z,586.0000
2023-01-27T02:43:58.668Z,587.0000
2023-01-27T02:45:01.026Z,586.0000
2023-01-27T02:46:01.287Z,587.0000
2023-01-27T02:47:03.563Z,586.0000
2023-01-27T02:48:05.965Z,587.0000
2023-01-27T02:49:08.363Z,589.0000
2023-01-27T02:50:08.614Z,589.0000
2023-01-27T02:51:11.033Z,590.0000
2023-01-27T02:52:13.414Z,588.0000
2023-01-27T02:53:15.761Z,589.0000
2023-01-27T02:54:15.971Z,589.0000
2023-01-27T02:55:18.309Z,593.0000
2023-01-27T02:56:20.624Z,590.0000
2023-01-27T02:57:22.876Z,596.0000
2023-01-27T02:58:25.189Z,597.0000
2023-01-27T02:59:27.457Z,590.0000
2023-01-27T03:00:29.773Z,587.0000
2023-01-27T03:01:30.045Z,587.0000
2023-01-27T03:02:32.361Z,585.0000
2023-01-27T03:03:34.592Z,585.0000
2023-01-27T03:04:36.932Z,588.0000
2023-01-27T03:05:39.199Z,587.0000
2023-01-27T03:06:39.447Z,586.0000
2023-01-27T03:07:41.658Z,587.0000
2023-01-27T03:08:43.972Z,585.0000
2023-01-27T03:09:46.272Z,586.0000
2023-01-27T03:10:48.580Z,587.0000
2023-01-27T03:11:50.938Z,586.0000
2023-01-27T03:12:51.072Z,584.0000
2023-01-27T03:13:53.398Z,579.0000
2023-01-27T03:14:55.688Z,579.0000
2023-01-27T03:15:58.044Z,578.0000
2023-01-27T03:17:00.377Z,584.0000
2023-01-27T03:18:02.678Z,584.0000
2023-01-27T03:19:02.866Z,584.0000
2023-01-27T03:20:05.225Z,582.0000
2023-01-27T03:21:07.625Z,583.0000
2023-01-27T03:22:10.010Z,584.0000
2023-01-27T03:23:10.206Z,584.0000
2023-01-27T03:24:12.657Z,585.0000
2023-01-27T03:25:15.483Z,584.0000
2023-01-27T03:26:17.306Z,581.0000
2023-01-27T03:27:19.620Z,580.0000
2023-01-27T03:28:19.766Z,582.0000
2023-01-27T03:29:22.105Z,581.0000
2023-01-27T03:30:24.440Z,584.0000
2023-01-27T03:31:26.890Z,589.0000
2023-01-27T03:32:29.206Z,587.0000
2023-01-27T03:33:31.426Z,586.0000
2023-01-27T03:34:31.586Z,587.0000
2023-01-27T03:35:33.920Z,585.0000
2023-01-27T03:36:36.248Z,589.0000
2023-01-27T03:37:38.597Z,586.0000
2023-01-27T03:38:40.863Z,583.0000
2023-01-27T03:39:43.219Z,586.0000
2023-01-27T03:40:45.520Z,577.0000
2023-01-27T03:41:47.872Z,580.0000
2023-01-27T03:42:50.207Z,578.0000
2023-01-27T03:43:52.503Z,582.0000
2023-01-27T03:44:52.674Z,582.0000
2023-01-27T03:45:54.977Z,586.0000
2023-01-27T03:46:57.271Z,586.0000
2023-01-27T03:47:59.718Z,585.0000
2023-01-27T03:49:01.949Z,587.0000
2023-01-27T03:50:04.304Z,587.0000
2023-01-27T03:51:04.483Z,581.0000
2023-01-27T03:52:06.790Z,581.0000
2023-01-27T03:53:09.129Z,578.0000
2023-01-27T03:54:11.449Z,574.0000
2023-01-27T03:55:14.048Z,573.0000
2023-01-27T03:56:16.108Z,574.0000
2023-01-27T03:57:16.355Z,575.0000
2023-01-27T03:58:18.761Z,575.0000
2023-01-27T03:59:21.107Z,575.0000
2023-01-27T04:00:23.506Z,576.0000
2023-01-27T04:01:23.820Z,574.0000
2023-01-27T04:02:26.150Z,578.0000
2023-01-27T04:03:28.509Z,577.0000
2023-01-27T04:04:30.864Z,579.0000
2023-01-27T04:05:31.092Z,578.0000
2023-01-27T04:06:33.477Z,572.0000
2023-01-27T04:07:35.872Z,574.0000
2023-01-27T04:08:38.338Z,576.0000
2023-01-27T04:09:40.675Z,578.0000
2023-01-27T04:10:40.922Z,580.0000
2023-01-27T04:11:43.313Z,582.0000
2023-01-27T04:12:45.706Z,585.0000
2023-01-27T04:13:48.095Z,597.0000
2023-01-27T04:14:48.298Z,587.0000
2023-01-27T04:15:50.745Z,594.0000
2023-01-27T04:16:53.071Z,606.0000
2023-01-27T04:17:53.292Z,618.0000
2023-01-27T04:18:55.657Z,623.0000
2023-01-27T04:19:58.025Z,620.0000
2023-01-27T04:21:00.393Z,614.0000
2023-01-27T04:22:02.770Z,613.0000
2023-01-27T04:23:02.957Z,615.0000
2023-01-27T04:24:05.418Z,618.0000
2023-01-27T04:25:07.743Z,633.0000
2023-01-27T04:26:10.125Z,637.0000
2023-01-27T04:27:10.358Z,640.0000
2023-01-27T04:28:12.766Z,645.0000
2023-01-27T04:29:15.171Z,642.0000
2023-01-27T04:30:17.483Z,640.0000
2023-01-27T04:31:19.858Z,637.0000
2023-01-27T04:32:20.022Z,641.0000
2023-01-27T04:33:22.404Z,640.0000
2023-01-27T04:35:57.347Z,643.0000
2023-01-27T04:36:59.580Z,649.0000
2023-01-27T04:38:01.888Z,646.0000
2023-01-27T04:39:04.226Z,643.0000
2023-01-27T04:40:06.565Z,643.0000
2023-01-27T04:41:06.824Z,647.0000
2023-01-27T04:42:09.136Z,650.0000
2023-01-27T04:43:11.513Z,649.0000
2023-01-27T04:44:13.830Z,651.0000
2023-01-27T04:45:16.359Z,651.0000
2023-01-27T04:46:18.510Z,651.0000
2023-01-27T04:47:20.891Z,655.0000
2023-01-27T04:48:23.154Z,657.0000
2023-01-27T04:49:25.474Z,660.0000
2023-01-27T04:50:25.688Z,656.0000
2023-01-27T04:51:28.091Z,655.0000
2023-01-27T04:52:30.394Z,652.0000
2023-01-27T04:53:32.731Z,649.0000
2023-01-27T04:54:32.941Z,647.0000
2023-01-27T04:55:35.268Z,652.0000
2023-01-27T04:56:37.675Z,653.0000
2023-01-27T04:57:39.961Z,654.0000
2023-01-27T04:58:42.303Z,658.0000
2023-01-27T04:59:42.501Z,660.0000
2023-01-27T05:00:44.815Z,662.0000
2023-01-27T05:01:47.196Z,662.0000
2023-01-27T05:02:49.506Z,664.0000
2023-01-27T05:03:51.779Z,666.0000
2023-01-27T05:04:51.984Z,664.0000
2023-01-27T05:05:52.163Z,667.0000
2023-01-27T05:06:54.560Z,670.0000
2023-01-27T05:07:56.860Z,670.0000
2023-01-27T05:08:59.205Z,671.0000
2023-01-27T05:10:01.544Z,670.0000
2023-01-27T05:11:01.709Z,669.0000
2023-01-27T05:12:04.067Z,665.0000
2023-01-27T05:13:06.314Z,664.0000
2023-01-27T05:14:08.627Z,661.0000
2023-01-27T05:15:11.271Z,664.0000
2023-01-27T05:16:13.170Z,660.0000
2023-01-27T05:17:13.501Z,660.0000
2023-01-27T05:18:15.665Z,661.0000
2023-01-27T05:19:17.990Z,658.0000
2023-01-27T05:20:20.308Z,656.0000
2023-01-27T05:21:22.597Z,655.0000
2023-01-27T05:22:24.950Z,651.0000
2023-01-27T05:23:25.025Z,655.0000
2023-01-27T05:24:27.384Z,654.0000
2023-01-27T05:25:29.534Z,655.0000
2023-01-27T05:26:31.820Z,656.0000
2023-01-27T05:27:34.140Z,653.0000
2023-01-27T05:28:36.395Z,659.0000
2023-01-27T05:29:38.736Z,669.0000
2023-01-27T05:30:38.947Z,653.0000
2023-01-27T05:31:41.247Z,650.0000
2023-01-27T05:32:43.530Z,649.0000
2023-01-27T05:33:45.817Z,649.0000
2023-01-27T05:34:48.108Z,652.0000
2023-01-27T05:35:50.364Z,648.0000
2023-01-27T05:36:52.638Z,645.0000
2023-01-27T05:37:52.846Z,644.0000
2023-01-27T05:38:55.103Z,645.0000
2023-01-27T05:39:57.423Z,646.0000
2023-01-27T05:40:59.691Z,646.0000
2023-01-27T05:42:02.021Z,645.0000
2023-01-27T05:43:04.368Z,644.0000
2023-01-27T05:44:04.429Z,643.0000
2023-01-27T05:45:06.735Z,641.0000
2023-01-27T05:46:09.089Z,640.0000
2023-01-27T05:47:11.245Z,642.0000
2023-01-27T05:48:13.537Z,643.0000
2023-01-27T05:49:15.800Z,636.0000
2023-01-27T05:50:18.110Z,633.0000
2023-01-27T05:51:20.425Z,632.0000
2023-01-27T05:52:22.684Z,630.0000
2023-01-27T05:53:25.033Z,630.0000
2023-01-27T05:54:27.314Z,633.0000
2023-01-27T05:55:29.611Z,629.0000
2023-01-27T05:56:31.879Z,629.0000
2023-01-27T05:57:31.995Z,632.0000
2023-01-27T05:58:34.363Z,633.0000
2023-01-27T05:59:36.646Z,628.0000
2023-01-27T06:00:38.985Z,629.0000
2023-01-27T06:01:41.345Z,631.0000
2023-01-27T06:02:43.605Z,634.0000
2023-01-27T06:03:43.851Z,637.0000
2023-01-27T06:04:46.189Z,642.0000
2023-01-27T06:05:48.552Z,645.0000
2023-01-27T06:06:50.926Z,646.0000
2023-01-27T06:07:53.301Z,647.0000
2023-01-27T06:08:53.611Z,647.0000
2023-01-27T06:09:55.943Z,649.0000
2023-01-27T06:10:58.319Z,650.0000
2023-01-27T06:12:00.713Z,651.0000
2023-01-27T06:13:00.920Z,653.0000
2023-01-27T06:14:03.284Z,656.0000
2023-01-27T06:15:05.660Z,658.0000
2023-01-27T06:16:08.074Z,666.0000
2023-01-27T06:17:10.372Z,668.0000
2023-01-27T06:18:10.484Z,667.0000
2023-01-27T06:19:12.809Z,667.0000
2023-01-27T06:20:15.123Z,671.0000
2023-01-27T06:21:17.471Z,671.0000
2023-01-27T06:22:19.848Z,668.0000
2023-01-27T06:23:20.079Z,680.0000
2023-01-27T06:24:22.609Z,679.0000
2023-01-27T06:25:24.823Z,681.0000
2023-01-27T06:26:27.204Z,686.0000
2023-01-27T06:27:27.388Z,701.0000
2023-01-27T06:28:30.164Z,701.0000
2023-01-27T06:29:32.195Z,703.0000
2023-01-27T06:30:34.404Z,709.0000
2023-01-27T06:31:34.652Z,719.0000
2023-01-27T06:32:36.972Z,720.0000
2023-01-27T06:33:39.306Z,718.0000
2023-01-27T06:34:41.700Z,722.0000
2023-01-27T06:35:44.002Z,727.0000
2023-01-27T06:36:46.296Z,732.0000
2023-01-27T06:37:46.517Z,735.0000
2023-01-27T06:38:48.792Z,736.0000
2023-01-27T06:39:51.154Z,741.0000
2023-01-27T06:40:53.480Z,741.0000
2023-01-27T06:41:55.877Z,746.0000
2023-01-27T06:42:56.094Z,747.0000
2023-01-27T06:43:58.427Z,745.0000
2023-01-27T06:45:00.795Z,746.0000
2023-01-27T06:46:05.696Z,753.0000
2023-01-27T06:47:05.384Z,750.0000
2023-01-27T06:48:42.364Z,742.0000
2023-01-27T06:49:44.506Z,738.0000
2023-01-27T06:50:46.882Z,737.0000
2023-01-27T06:51:49.112Z,738.0000
2023-01-27T06:52:51.407Z,739.0000
2023-01-27T06:53:53.674Z,740.0000
2023-01-27T06:54:55.929Z,741.0000
2023-01-27T06:55:56.097Z,742.0000
2023-01-27T06:56:58.357Z,743.0000
2023-01-27T06:58:00.684Z,742.0000
2023-01-27T06:59:02.994Z,747.0000
2023-01-27T07:00:05.339Z,749.0000
2023-01-27T07:01:07.826Z,747.0000
2023-01-27T07:02:07.862Z,747.0000
2023-01-27T07:03:10.224Z,747.0000
2023-01-27T07:04:12.616Z,747.0000
2023-01-27T07:05:14.980Z,747.0000
2023-01-27T07:06:17.366Z,748.0000
2023-01-27T07:07:17.805Z,748.0000
2023-01-27T07:08:19.916Z,749.0000
2023-01-27T07:09:22.228Z,748.0000
2023-01-27T07:10:24.572Z,747.0000
2023-01-27T07:11:26.980Z,742.0000
2023-01-27T07:12:27.109Z,746.0000
2023-01-27T07:13:29.443Z,743.0000
2023-01-27T07:14:31.806Z,740.0000
2023-01-27T07:15:34.155Z,740.0000
2023-01-27T07:16:36.607Z,741.0000
2023-01-27T07:17:36.766Z,736.0000
2023-01-27T07:18:39.145Z,732.0000
2023-01-27T07:19:41.578Z,735.0000
2023-01-27T07:20:43.867Z,730.0000
2023-01-27T07:21:44.140Z,727.0000
2023-01-27T07:22:46.467Z,726.0000
2023-01-27T07:23:48.851Z,728.0000
2023-01-27T07:24:51.181Z,726.0000
2023-01-27T07:25:51.415Z,722.0000
2023-01-27T07:26:53.795Z,719.0000
2023-01-27T07:27:56.131Z,716.0000
2023-01-27T07:28:58.469Z,714.0000
2023-01-27T07:29:58.689Z,713.0000
2023-01-27T07:31:01.010Z,706.0000
2023-01-27T07:32:03.492Z,702.0000
2023-01-27T07:33:05.691Z,702.0000
2023-01-27T07:34:08.069Z,701.0000
2023-01-27T07:35:08.324Z,702.0000
2023-01-27T07:36:10.654Z,703.0000
2023-01-27T07:37:13.094Z,698.0000
2023-01-27T07:38:15.398Z,693.0000
2023-01-27T07:39:17.782Z,692.0000
2023-01-27T07:40:18.031Z,691.0000
2023-01-27T07:41:20.421Z,694.0000
2023-01-27T07:42:22.810Z,692.0000
2023-01-27T07:43:25.134Z,690.0000
2023-01-27T07:44:25.356Z,690.0000
2023-01-27T07:45:27.790Z,690.0000
2023-01-27T07:46:30.078Z,689.0000
2023-01-27T07:47:32.467Z,692.0000
2023-01-27T07:48:34.732Z,690.0000
2023-01-27T07:49:37.048Z,692.0000
2023-01-27T07:50:39.415Z,688.0000
2023-01-27T07:51:41.742Z,683.0000
2023-01-27T07:52:44.154Z,682.0000
2023-01-27T07:53:46.515Z,684.0000
2023-01-27T07:54:46.752Z,686.0000
2023-01-27T07:55:49.130Z,687.0000
2023-01-27T07:56:51.503Z,686.0000
2023-01-27T07:57:53.901Z,687.0000
2023-01-27T07:58:56.275Z,688.0000
2023-01-27T07:59:58.645Z,686.0000
2023-01-27T08:01:01.104Z,684.0000
2023-01-27T08:02:03.369Z,681.0000
2023-01-27T08:03:03.693Z,683.0000
2023-01-27T08:04:05.930Z,681.0000
2023-01-27T08:05:08.290Z,693.0000
2023-01-27T08:06:10.614Z,680.0000
2023-01-27T08:07:12.945Z,683.0000
2023-01-27T08:08:15.273Z,684.0000
2023-01-27T08:09:15.426Z,679.0000
2023-01-27T08:10:17.700Z,675.0000
2023-01-27T08:11:19.993Z,674.0000
2023-01-27T08:12:22.234Z,673.0000
2023-01-27T08:13:24.620Z,674.0000
2023-01-27T08:14:26.817Z,677.0000
2023-01-27T08:15:27.038Z,678.0000
2023-01-27T08:16:29.484Z,679.0000
2023-01-27T08:17:31.789Z,680.0000
2023-01-27T08:18:34.219Z,680.0000
2023-01-27T08:19:36.578Z,679.0000
2023-01-27T08:20:36.832Z,677.0000
2023-01-27T08:21:39.202Z,678.0000
2023-01-27T08:22:41.561Z,682.0000
2023-01-27T08:23:43.966Z,682.0000
2023-01-27T08:24:44.107Z,683.0000
2023-01-27T08:25:46.462Z,678.0000
2023-01-27T08:26:48.822Z,676.0000
2023-01-27T08:27:51.156Z,678.0000
2023-01-27T08:28:53.507Z,675.0000
2023-01-27T08:31:11.106Z,667.0000
2023-01-27T08:32:12.860Z,668.0000
2023-01-27T08:33:12.348Z,662.0000
2023-01-27T08:34:13.710Z,653.0000
2023-01-27T08:35:15.926Z,655.0000
2023-01-27T08:36:18.251Z,659.0000
2023-01-27T08:37:18.412Z,662.0000
2023-01-27T08:38:20.722Z,665.0000
2023-01-27T08:39:23.175Z,674.0000
2023-01-27T08:40:25.423Z,667.0000
2023-01-27T08:41:27.708Z,664.0000
2023-01-27T08:42:30.066Z,667.0000
2023-01-27T08:43:30.209Z,662.0000
2023-01-27T08:44:32.575Z,659.0000
2023-01-27T08:45:34.875Z,660.0000
2023-01-27T08:46:37.157Z,661.0000
2023-01-27T08:47:39.477Z,664.0000
2023-01-27T08:48:41.749Z,663.0000
2023-01-27T08:49:44.019Z,657.0000
2023-01-27T08:50:44.134Z,660.0000
2023-01-27T08:51:46.365Z,661.0000
2023-01-27T08:52:48.633Z,661.0000
2023-01-27T08:53:50.890Z,664.0000
2023-01-27T08:54:53.214Z,671.0000
2023-01-27T08:55:55.452Z,663.0000
2023-01-27T08:56:57.728Z,658.0000
2023-01-27T08:58:00.040Z,656.0000
2023-01-27T08:59:00.214Z,660.0000
2023-01-27T09:00:02.673Z,663.0000
2023-01-27T09:01:04.911Z,664.0000
2023-01-27T09:02:07.170Z,664.0000
2023-01-27T09:03:09.480Z,663.0000
2023-01-27T09:04:09.764Z,663.0000
2023-01-27T09:05:12.030Z,665.0000
2023-01-27T09:06:14.314Z,661.0000
2023-01-27T09:07:16.616Z,658.0000
2023-01-27T09:08:18.958Z,658.0000
2023-01-27T09:09:19.104Z,665.0000
2023-01-27T09:10:21.808Z,666.0000
2023-01-27T09:11:23.696Z,666.0000
2023-01-27T09:12:26.023Z,671.0000
2023-01-27T09:13:28.305Z,668.0000
2023-01-27T09:14:30.609Z,667.0000
2023-01-27T09:15:32.946Z,671.0000
2023-01-27T09:16:33.085Z,666.0000
2023-01-27T09:17:35.346Z,662.0000
2023-01-27T09:18:37.653Z,656.0000
2023-01-27T09:19:39.872Z,676.0000
2023-01-27T09:20:42.209Z,663.0000
2023-01-27T09:21:44.500Z,655.0000
2023-01-27T09:22:46.814Z,659.0000
2023-01-27T09:23:47.008Z,659.0000
2023-01-27T09:24:49.213Z,658.0000
2023-01-27T09:25:51.543Z,661.0000
2023-01-27T09:26:53.808Z,659.0000
2023-01-27T09:27:56.148Z,649.0000
2023-01-27T09:28:58.476Z,643.0000
2023-01-27T09:29:58.675Z,643.0000
2023-01-27T09:31:01.210Z,648.0000
2023-01-27T09:32:03.442Z,646.0000
2023-01-27T09:33:05.755Z,647.0000
2023-01-27T09:34:08.133Z,647.0000
2023-01-27T09:35:08.345Z,651.0000
2023-01-27T09:36:10.753Z,652.0000
2023-01-27T09:37:13.090Z,651.0000
2023-01-27T09:38:15.472Z,650.0000
2023-01-27T09:39:17.867Z,647.0000
2023-01-27T09:40:18.089Z,645.0000
2023-01-27T09:41:20.465Z,647.0000
2023-01-27T09:42:22.758Z,648.0000
2023-01-27T09:43:25.166Z,646.0000
2023-01-27T09:44:27.529Z,646.0000
2023-01-27T09:45:29.899Z,646.0000
2023-01-27T09:46:32.403Z,646.0000
2023-01-27T09:47:34.638Z,649.0000
2023-01-27T09:48:34.813Z,647.0000
2023-01-27T09:49:37.114Z,647.0000
2023-01-27T09:50:39.468Z,645.0000
2023-01-27T09:51:41.820Z,644.0000
2023-01-27T09:52:47.861Z,645.0000
2023-01-27T09:53:44.330Z,645.0000
2023-01-27T09:54:46.660Z,644.0000
2023-01-27T09:55:48.959Z,644.0000
2023-01-27T09:56:51.326Z,643.0000
2023-01-27T09:57:53.587Z,644.0000
2023-01-27T09:58:55.877Z,642.0000
2023-01-27T09:59:58.140Z,640.0000
2023-01-27T10:00:58.300Z,639.0000
2023-01-27T10:02:00.602Z,638.0000
2023-01-27T10:03:02.919Z,636.0000
2023-01-27T10:04:05.273Z,635.0000
2023-01-27T10:05:07.593Z,633.0000
2023-01-27T10:06:09.850Z,630.0000
2023-01-27T10:07:10.074Z,629.0000
2023-01-27T10:08:12.341Z,631.0000
2023-01-27T10:09:14.661Z,630.0000
2023-01-27T10:10:17.018Z,628.0000
2023-01-27T10:11:19.295Z,628.0000
2023-01-27T10:12:21.635Z,628.0000
2023-01-27T10:13:21.770Z,628.0000
2023-01-27T10:14:24.079Z,627.0000
2023-01-27T10:15:26.402Z,624.0000
2023-01-27T10:16:28.765Z,624.0000
2023-01-27T10:17:31.056Z,624.0000
2023-01-27T10:18:31.202Z,623.0000
2023-01-27T10:19:33.485Z,622.0000
2023-01-27T10:20:35.779Z,621.0000
2023-01-27T10:21:38.051Z,617.0000
2023-01-27T10:22:40.315Z,614.0000
2023-01-27T10:23:42.587Z,615.0000
2023-01-27T10:24:44.823Z,613.0000
2023-01-27T10:25:47.100Z,613.0000
2023-01-27T10:26:47.203Z,613.0000
2023-01-27T10:27:49.598Z,611.0000
2023-01-27T10:28:51.710Z,611.0000
2023-01-27T10:29:53.962Z,610.0000
2023-01-27T10:30:56.229Z,612.0000
2023-01-27T10:31:58.500Z,608.0000
2023-01-27T10:33:00.722Z,605.0000
2023-01-27T10:34:03.008Z,607.0000
2023-01-27T10:35:03.153Z,606.0000
2023-01-27T10:36:05.457Z,604.0000
2023-01-27T10:37:07.748Z,604.0000
2023-01-27T10:38:12.236Z,603.0000
2023-01-27T10:38:37.990Z,603.0000
2023-01-27T10:39:38.148Z,604.0000
2023-01-27T10:40:40.420Z,601.0000
2023-01-27T10:41:42.778Z,601.0000
2023-01-27T10:42:45.042Z,598.0000
2023-01-27T10:43:50.022Z,596.0000
2023-01-27T10:44:49.654Z,596.0000
2023-01-27T10:45:52.027Z,596.0000
2023-01-27T10:46:54.256Z,594.0000
2023-01-27T10:47:54.367Z,597.0000
2023-01-27T10:48:56.624Z,596.0000
2023-01-27T10:49:58.857Z,594.0000
2023-01-27T10:51:01.163Z,592.0000
2023-01-27T10:52:03.443Z,591.0000
2023-01-27T10:53:05.701Z,589.0000
2023-01-27T10:54:08.139Z,588.0000
2023-01-27T10:55:08.165Z,585.0000
2023-01-27T10:56:10.470Z,587.0000
2023-01-27T10:57:12.772Z,585.0000
2023-01-27T10:58:14.995Z,585.0000
2023-01-27T10:59:17.270Z,585.0000
2023-01-27T11:00:46.466Z,586.0000
2023-01-27T11:01:22.666Z,586.0000
2023-01-27T11:02:24.063Z,585.0000
2023-01-27T11:03:24.211Z,582.0000
2023-01-27T11:04:26.613Z,581.0000
2023-01-27T11:05:28.795Z,579.0000
2023-01-27T11:06:31.086Z,579.0000
2023-01-27T11:07:33.383Z,577.0000
2023-01-27T11:08:35.701Z,577.0000
2023-01-27T11:09:38.032Z,579.0000
2023-01-27T11:10:38.165Z,580.0000
2023-01-27T11:11:40.467Z,581.0000
2023-01-27T11:12:42.833Z,578.0000
2023-01-27T11:13:45.118Z,577.0000
2023-01-27T11:14:47.455Z,575.0000
2023-01-27T11:15:47.582Z,575.0000
2023-01-27T11:16:50.012Z,573.0000
2023-01-27T11:17:52.172Z,571.0000
2023-01-27T11:18:54.502Z,573.0000
2023-01-27T11:19:56.863Z,570.0000
2023-01-27T11:20:59.182Z,570.0000
2023-01-27T11:22:07.780Z,566.0000
2023-01-27T11:23:01.712Z,565.0000
2023-01-27T11:24:04.048Z,566.0000
2023-01-27T11:25:06.428Z,565.0000
2023-01-27T11:26:08.736Z,564.0000
2023-01-27T11:27:11.058Z,565.0000
2023-01-27T11:28:11.220Z,565.0000
2023-01-27T11:29:13.532Z,567.0000
2023-01-27T11:30:16.228Z,569.0000
2023-01-27T11:31:18.265Z,571.0000
2023-01-27T11:33:42.302Z,558.0000
2023-01-27T11:34:44.570Z,559.0000
2023-01-27T11:35:46.901Z,559.0000
2023-01-27T11:36:50.102Z,561.0000
2023-01-27T11:37:51.528Z,567.0000
2023-01-27T11:38:51.649Z,563.0000
2023-01-27T11:39:53.963Z,560.0000
2023-01-27T11:40:56.295Z,562.0000
2023-01-27T11:41:58.507Z,563.0000
2023-01-27T11:43:00.856Z,561.0000
2023-01-27T11:44:03.189Z,558.0000
2023-01-27T11:45:03.368Z,554.0000
2023-01-27T11:46:05.844Z,554.0000
2023-01-27T11:47:08.082Z,555.0000
2023-01-27T11:48:10.403Z,553.0000
2023-01-27T11:49:12.760Z,548.0000
2023-01-27T11:50:13.208Z,543.0000
2023-01-27T11:51:15.335Z,544.0000
2023-01-27T11:52:17.651Z,544.0000
2023-01-27T11:53:20.006Z,545.0000
2023-01-27T11:54:22.354Z,546.0000
2023-01-27T11:55:22.582Z,545.0000
2023-01-27T11:56:25.049Z,545.0000
2023-01-27T11:57:27.277Z,545.0000
2023-01-27T11:58:29.596Z,542.0000
2023-01-27T11:59:31.989Z,541.0000
2023-01-27T12:00:32.171Z,539.0000
2023-01-27T12:01:34.570Z,541.0000
2023-01-27T12:02:36.894Z,541.0000
2023-01-27T12:03:39.287Z,542.0000
2023-01-27T12:04:41.594Z,542.0000
2023-01-27T12:05:41.800Z,541.0000
2023-01-27T12:06:44.161Z,541.0000
2023-01-27T12:07:46.495Z,542.0000
2023-01-27T12:08:48.831Z,545.0000
2023-01-27T12:09:49.053Z,546.0000
2023-01-27T12:10:51.388Z,542.0000
2023-01-27T12:11:53.795Z,541.0000